Gallup, New Mexico
Current Conditions -  °F | °C
As of 3:53 AM on Monday 20 Oct 2014 (Local Time) from KGUP Reporting Station
Clear Clear  
Wind Chill:   Ceiling: Unl
Heat Index:   Visibility: 10mi
Dew Point:   Wind: 3mph
Humidity: 93%   Direction: 110°ESE
Pressure: 30.19"   Gusts: NA
Location:  35.53°N, 108.74°W
Report Text: KGUP 200953Z AUTO 11003KT 10SM CLR 04/03 A3019 RMK AO2 SLP176 T00390028
Loading
Personal Weather Stations






























Interactive Weather Map
Tropical Storm Tracking
New forecast layout! Learn more

10-Day Weather Forecast

Advertisements
Track Severe Weather on mobile